SRV160M GBYD-GVNP
Flight info
| Callsign | SRV160M |
|---|---|
| Flight time | 0h 32m |
| Altitude | 24000 |
| Route | TURED A602 MOGSA W31 SONVA AREPU1H |
| Aircraft | B738/M-SDE2E3FGHIRWXY/LB1 |
Departure
| Time | 2026-05-05 21:25 |
|---|---|
| Airport | Banjul International Airport (GBYD) |
Arrival
| Time | 2026-05-05 21:57 |
|---|---|
| Airport | Nelson Mandela International Airport (GVNP) |
| Time | Latitude | Longitude | Altitude | Speed | Heading |
|---|---|---|---|---|---|
| 2026-05-05 21:10 | 13.34248 | -16.65389 | 90 ft | 0 kts | 130° |
| 2026-05-05 21:19 | 13.34240 | -16.65380 | 90 ft | 3 kts | 132° |
| 2026-05-05 21:20 | 13.34199 | -16.65372 | 90 ft | 8 kts | 196° |
| 2026-05-05 21:20 | 13.34143 | -16.65373 | 91 ft | 11 kts | 148° |
| 2026-05-05 21:20 | 13.34086 | -16.65312 | 90 ft | 12 kts | 129° |
| 2026-05-05 21:20 | 13.34041 | -16.65257 | 90 ft | 0 kts | 125° |
| 2026-05-05 21:21 | 13.34016 | -16.65227 | 90 ft | 10 kts | 130° |
| 2026-05-05 21:21 | 13.33948 | -16.65193 | 90 ft | 12 kts | 195° |
| 2026-05-05 21:21 | 13.33884 | -16.65243 | 91 ft | 12 kts | 221° |
| 2026-05-05 21:22 | 13.33814 | -16.65256 | 91 ft | 14 kts | 139° |
| 2026-05-05 21:22 | 13.33679 | -16.65097 | 91 ft | 47 kts | 130° |
| 2026-05-05 21:22 | 13.33464 | -16.64848 | 88 ft | 45 kts | 131° |
| 2026-05-05 21:22 | 13.33268 | -16.64609 | 90 ft | 42 kts | 131° |
| 2026-05-05 21:23 | 13.33083 | -16.64388 | 92 ft | 39 kts | 130° |
| 2026-05-05 21:23 | 13.32919 | -16.64193 | 89 ft | 19 kts | 129° |
| 2026-05-05 21:23 | 13.32882 | -16.64073 | 93 ft | 18 kts | 93° |
| 2026-05-05 21:23 | 13.32859 | -16.63952 | 91 ft | 18 kts | 143° |
| 2026-05-05 21:24 | 13.32749 | -16.63955 | 89 ft | 13 kts | 212° |
| 2026-05-05 21:24 | 13.32761 | -16.64006 | 88 ft | 9 kts | 313° |
| 2026-05-05 21:24 | 13.32939 | -16.64217 | 89 ft | 80 kts | 310° |
| 2026-05-05 21:24 | 13.33480 | -16.64860 | 90 ft | 155 kts | 310° |
| 2026-05-05 21:25 | 13.34313 | -16.65812 | 443 ft | 191 kts | 310° |
| 2026-05-05 21:25 | 13.35158 | -16.66797 | 1645 ft | 173 kts | 300° |
| 2026-05-05 21:25 | 13.35439 | -16.67987 | 2531 ft | 183 kts | 261° |
| 2026-05-05 21:25 | 13.34997 | -16.69315 | 2815 ft | 210 kts | 251° |
| 2026-05-05 21:26 | 13.34427 | -16.70817 | 3112 ft | 231 kts | 250° |
| 2026-05-05 21:26 | 13.33787 | -16.72598 | 3400 ft | 258 kts | 252° |
| 2026-05-05 21:26 | 13.31944 | -16.78351 | 5696 ft | 279 kts | 253° |
| 2026-05-05 21:26 | 13.30015 | -16.85285 | 8168 ft | 297 kts | 253° |
| 2026-05-05 21:27 | 13.28440 | -16.91264 | 10237 ft | 310 kts | 252° |
| 2026-05-05 21:27 | 13.27861 | -16.93482 | 10444 ft | 333 kts | 253° |
| 2026-05-05 21:27 | 13.27248 | -16.95831 | 10610 ft | 355 kts | 253° |
| 2026-05-05 21:27 | 13.26591 | -16.98357 | 10764 ft | 376 kts | 253° |
| 2026-05-05 21:28 | 13.25629 | -17.02066 | 11083 ft | 396 kts | 253° |
| 2026-05-05 21:28 | 13.22757 | -17.13144 | 13371 ft | 406 kts | 253° |
| 2026-05-05 21:28 | 13.19805 | -17.24489 | 15400 ft | 415 kts | 253° |
| 2026-05-05 21:28 | 13.16810 | -17.35973 | 17416 ft | 420 kts | 253° |
| 2026-05-05 21:29 | 13.13753 | -17.47664 | 19091 ft | 427 kts | 253° |
| 2026-05-05 21:29 | 13.10645 | -17.59531 | 20666 ft | 431 kts | 253° |
| 2026-05-05 21:29 | 13.07505 | -17.71494 | 22065 ft | 437 kts | 253° |
| 2026-05-05 21:29 | 13.05998 | -17.77227 | 22673 ft | 440 kts | 253° |
| 2026-05-05 21:30 | 13.05199 | -17.80264 | 22964 ft | 441 kts | 253° |
| 2026-05-05 21:30 | 13.04399 | -17.83305 | 23324 ft | 441 kts | 253° |
| 2026-05-05 21:30 | 13.03599 | -17.86345 | 23664 ft | 441 kts | 253° |
| 2026-05-05 21:30 | 13.02806 | -17.89359 | 23903 ft | 442 kts | 254° |
| 2026-05-05 21:31 | 13.01999 | -17.92419 | 23925 ft | 446 kts | 254° |
| 2026-05-05 21:31 | 13.01224 | -17.95513 | 23933 ft | 450 kts | 258° |
| 2026-05-05 21:31 | 13.01149 | -17.98741 | 23944 ft | 457 kts | 277° |
| 2026-05-05 21:31 | 13.01953 | -18.01906 | 23943 ft | 463 kts | 289° |
| 2026-05-05 21:32 | 13.03527 | -18.04812 | 23941 ft | 471 kts | 304° |
| 2026-05-05 21:32 | 13.09857 | -18.12979 | 23921 ft | 479 kts | 307° |
| 2026-05-05 21:32 | 13.18283 | -18.23662 | 23928 ft | 484 kts | 306° |
| 2026-05-05 21:32 | 13.26670 | -18.34524 | 23930 ft | 487 kts | 306° |
| 2026-05-05 21:33 | 13.35041 | -18.45424 | 23927 ft | 485 kts | 306° |
| 2026-05-05 21:33 | 13.43254 | -18.56102 | 23924 ft | 477 kts | 306° |
| 2026-05-05 21:33 | 13.51420 | -18.66732 | 23950 ft | 472 kts | 305° |
| 2026-05-05 21:33 | 13.59565 | -18.77356 | 23956 ft | 473 kts | 305° |
| 2026-05-05 21:34 | 13.67787 | -18.88092 | 23958 ft | 479 kts | 305° |
| 2026-05-05 21:34 | 13.76102 | -18.98959 | 23956 ft | 483 kts | 305° |
| 2026-05-05 21:34 | 13.84396 | -19.09811 | 23935 ft | 481 kts | 305° |
| 2026-05-05 21:34 | 13.92632 | -19.20600 | 23934 ft | 473 kts | 305° |
| 2026-05-05 21:35 | 14.00598 | -19.31052 | 23951 ft | 469 kts | 305° |
| 2026-05-05 21:35 | 14.08668 | -19.41660 | 23976 ft | 472 kts | 305° |
| 2026-05-05 21:35 | 14.16825 | -19.52392 | 23972 ft | 478 kts | 305° |
| 2026-05-05 21:35 | 14.25078 | -19.63260 | 23967 ft | 482 kts | 305° |
| 2026-05-05 21:36 | 14.33341 | -19.74158 | 23946 ft | 480 kts | 305° |
| 2026-05-05 21:36 | 14.41509 | -19.84942 | 23942 ft | 471 kts | 305° |
| 2026-05-05 21:36 | 14.49534 | -19.95556 | 23972 ft | 468 kts | 305° |
| 2026-05-05 21:36 | 14.57579 | -20.06215 | 23977 ft | 472 kts | 305° |
| 2026-05-05 21:37 | 14.65149 | -20.16253 | 23978 ft | 478 kts | 305° |
| 2026-05-05 21:37 | 14.67015 | -20.19082 | 23959 ft | 476 kts | 296° |
| 2026-05-05 21:37 | 14.68331 | -20.22147 | 23971 ft | 472 kts | 287° |
| 2026-05-05 21:37 | 14.69195 | -20.25407 | 23967 ft | 470 kts | 278° |
| 2026-05-05 21:38 | 14.69763 | -20.31490 | 23976 ft | 467 kts | 272° |
| 2026-05-05 21:38 | 14.70776 | -20.44874 | 23949 ft | 467 kts | 273° |
| 2026-05-05 21:38 | 14.71876 | -20.58237 | 23959 ft | 466 kts | 274° |
| 2026-05-05 21:38 | 14.72981 | -20.71581 | 23973 ft | 466 kts | 274° |
| 2026-05-05 21:39 | 14.74070 | -20.84965 | 23969 ft | 466 kts | 274° |
| 2026-05-05 21:39 | 14.75150 | -20.98332 | 23970 ft | 466 kts | 274° |
| 2026-05-05 21:39 | 14.76225 | -21.11718 | 23971 ft | 466 kts | 274° |
| 2026-05-05 21:39 | 14.77275 | -21.24897 | 23975 ft | 466 kts | 274° |
| 2026-05-05 21:40 | 14.78334 | -21.38284 | 23976 ft | 466 kts | 274° |
| 2026-05-05 21:40 | 14.79382 | -21.51630 | 23974 ft | 466 kts | 274° |
| 2026-05-05 21:40 | 14.80423 | -21.64988 | 23979 ft | 466 kts | 274° |
| 2026-05-05 21:40 | 14.81458 | -21.78356 | 23978 ft | 466 kts | 274° |
| 2026-05-05 21:41 | 14.82484 | -21.91730 | 23978 ft | 466 kts | 274° |
| 2026-05-05 21:41 | 14.83503 | -22.05093 | 23980 ft | 467 kts | 274° |
| 2026-05-05 21:41 | 14.83689 | -22.08658 | 23979 ft | 466 kts | 269° |
| 2026-05-05 21:41 | 14.83023 | -22.16814 | 23993 ft | 465 kts | 264° |
| 2026-05-05 21:42 | 14.81770 | -22.30157 | 23979 ft | 465 kts | 264° |
| 2026-05-05 21:42 | 14.81355 | -22.34896 | 23967 ft | 453 kts | 264° |
| 2026-05-05 21:42 | 14.80951 | -22.39634 | 23759 ft | 434 kts | 264° |
| 2026-05-05 21:42 | 14.79902 | -22.51862 | 22421 ft | 424 kts | 264° |
| 2026-05-05 21:43 | 14.78837 | -22.64057 | 20563 ft | 425 kts | 264° |
| 2026-05-05 21:43 | 14.78650 | -22.66190 | 20234 ft | 423 kts | 264° |
| 2026-05-05 21:44 | 14.77659 | -22.77475 | 18515 ft | 412 kts | 263° |
| 2026-05-05 21:44 | 14.76630 | -22.89107 | 16520 ft | 400 kts | 263° |
| 2026-05-05 21:44 | 14.76303 | -22.92798 | 15902 ft | 396 kts | 263° |
| 2026-05-05 21:44 | 14.76052 | -22.95612 | 15420 ft | 390 kts | 263° |
| 2026-05-05 21:45 | 14.75806 | -22.98385 | 14953 ft | 386 kts | 263° |
| 2026-05-05 21:45 | 14.75561 | -23.01131 | 14488 ft | 381 kts | 263° |
| 2026-05-05 21:45 | 14.75318 | -23.03849 | 14032 ft | 378 kts | 263° |
| 2026-05-05 21:45 | 14.75081 | -23.06504 | 13558 ft | 374 kts | 263° |
| 2026-05-05 21:46 | 14.74842 | -23.09174 | 13057 ft | 371 kts | 263° |
| 2026-05-05 21:46 | 14.74606 | -23.11816 | 12544 ft | 363 kts | 263° |
| 2026-05-05 21:46 | 14.74377 | -23.14369 | 12046 ft | 351 kts | 263° |
| 2026-05-05 21:46 | 14.74156 | -23.16847 | 11557 ft | 342 kts | 263° |
| 2026-05-05 21:47 | 14.73939 | -23.19265 | 11074 ft | 333 kts | 263° |
| 2026-05-05 21:47 | 14.73726 | -23.21625 | 10604 ft | 326 kts | 263° |
| 2026-05-05 21:47 | 14.73518 | -23.23933 | 10141 ft | 320 kts | 263° |
| 2026-05-05 21:47 | 14.73313 | -23.26199 | 9668 ft | 314 kts | 263° |
| 2026-05-05 21:48 | 14.73111 | -23.28427 | 9167 ft | 310 kts | 263° |
| 2026-05-05 21:48 | 14.72908 | -23.30653 | 8690 ft | 313 kts | 261° |
| 2026-05-05 21:48 | 14.72319 | -23.32779 | 8186 ft | 313 kts | 239° |
| 2026-05-05 21:48 | 14.70933 | -23.34489 | 7733 ft | 312 kts | 217° |
| 2026-05-05 21:49 | 14.69163 | -23.35792 | 7290 ft | 313 kts | 213° |
| 2026-05-05 21:49 | 14.67331 | -23.37020 | 6825 ft | 315 kts | 212° |
| 2026-05-05 21:49 | 14.65472 | -23.38241 | 6370 ft | 317 kts | 212° |
| 2026-05-05 21:49 | 14.63603 | -23.39466 | 5879 ft | 319 kts | 212° |
| 2026-05-05 21:50 | 14.61734 | -23.40691 | 5537 ft | 315 kts | 211° |
| 2026-05-05 21:50 | 14.59911 | -23.41891 | 5325 ft | 307 kts | 213° |
| 2026-05-05 21:50 | 14.58459 | -23.43469 | 5053 ft | 305 kts | 243° |
| 2026-05-05 21:50 | 14.58045 | -23.45526 | 5007 ft | 287 kts | 275° |
| 2026-05-05 21:51 | 14.58586 | -23.47441 | 4815 ft | 273 kts | 297° |
| 2026-05-05 21:51 | 14.59603 | -23.49052 | 4561 ft | 263 kts | 311° |
| 2026-05-05 21:51 | 14.60901 | -23.50297 | 4307 ft | 254 kts | 329° |
| 2026-05-05 21:51 | 14.62448 | -23.51099 | 4067 ft | 244 kts | 339° |
| 2026-05-05 21:52 | 14.65524 | -23.52348 | 3571 ft | 231 kts | 341° |
| 2026-05-05 21:52 | 14.66994 | -23.52939 | 3362 ft | 221 kts | 340° |
| 2026-05-05 21:52 | 14.68396 | -23.53509 | 3128 ft | 210 kts | 340° |
| 2026-05-05 21:53 | 14.69709 | -23.54047 | 3011 ft | 194 kts | 340° |
| 2026-05-05 21:53 | 14.71507 | -23.54787 | 2971 ft | 179 kts | 340° |
| 2026-05-05 21:53 | 14.74711 | -23.56080 | 2979 ft | 180 kts | 347° |
| 2026-05-05 21:53 | 14.75914 | -23.55977 | 2983 ft | 174 kts | 26° |
| 2026-05-05 21:54 | 14.78796 | -23.54877 | 3022 ft | 178 kts | 20° |
| 2026-05-05 21:54 | 14.81451 | -23.53793 | 2882 ft | 184 kts | 24° |
| 2026-05-05 21:54 | 14.82619 | -23.53267 | 2621 ft | 180 kts | 23° |
| 2026-05-05 21:54 | 14.83755 | -23.52778 | 2371 ft | 173 kts | 21° |
| 2026-05-05 21:55 | 14.84832 | -23.52325 | 2151 ft | 161 kts | 21° |
| 2026-05-05 21:55 | 14.85839 | -23.51905 | 1994 ft | 152 kts | 21° |
| 2026-05-05 21:55 | 14.86835 | -23.51491 | 1757 ft | 154 kts | 21° |
| 2026-05-05 21:55 | 14.87833 | -23.51076 | 1550 ft | 155 kts | 21° |
| 2026-05-05 21:56 | 14.88830 | -23.50662 | 1343 ft | 153 kts | 21° |
| 2026-05-05 21:56 | 14.89807 | -23.50256 | 1141 ft | 153 kts | 22° |
| 2026-05-05 21:56 | 14.90798 | -23.49845 | 946 ft | 155 kts | 22° |
| 2026-05-05 21:56 | 14.91815 | -23.49423 | 743 ft | 159 kts | 23° |
| 2026-05-05 21:57 | 14.92827 | -23.48994 | 490 ft | 159 kts | 23° |
| 2026-05-05 21:57 | 14.93835 | -23.48585 | 340 ft | 148 kts | 23° |
| 2026-05-05 21:57 | 14.94590 | -23.48273 | 354 ft | 83 kts | 21° |
| 2026-05-05 21:57 | 14.94858 | -23.48162 | 367 ft | 19 kts | 22° |
| 2026-05-05 21:58 | 14.94939 | -23.48111 | 372 ft | 5 kts | 46° |
| 2026-05-05 21:58 | 14.94964 | -23.48094 | 374 ft | 4 kts | 5° |
| 2026-05-05 21:58 | 14.94963 | -23.48120 | 373 ft | 7 kts | 216° |
| 2026-05-05 21:58 | 14.94901 | -23.48145 | 371 ft | 12 kts | 204° |
| 2026-05-05 21:59 | 14.94816 | -23.48179 | 366 ft | 14 kts | 201° |
| 2026-05-05 21:59 | 14.94706 | -23.48225 | 359 ft | 21 kts | 200° |
| 2026-05-05 21:59 | 14.94587 | -23.48275 | 355 ft | 13 kts | 203° |
| 2026-05-05 21:59 | 14.94561 | -23.48360 | 349 ft | 14 kts | 289° |
| 2026-05-05 22:00 | 14.94580 | -23.48431 | 348 ft | 9 kts | 261° |
| 2026-05-05 22:00 | 14.94532 | -23.48472 | 345 ft | 10 kts | 203° |
| 2026-05-05 22:00 | 14.94506 | -23.48495 | 344 ft | 4 kts | 266° |
| 2026-05-05 22:00 | 14.94516 | -23.48520 | 338 ft | 7 kts | 294° |
| 2026-05-05 22:01 | 14.94525 | -23.48543 | 336 ft | 0 kts | 291° |
| 2026-05-05 22:13 | 9.57366 | -13.61999 | 338 ft | 3 kts | 140° |